createdAt,value
2023-02-16T00:00:32.188Z,0
2023-02-16T00:01:32.900Z,0
2023-02-16T00:02:33.394Z,0
2023-02-16T00:03:33.810Z,0
2023-02-16T00:04:34.348Z,0
2023-02-16T00:05:33.988Z,0
2023-02-16T00:06:35.208Z,0
2023-02-16T00:07:36.058Z,0
2023-02-16T00:08:36.550Z,0
2023-02-16T00:09:36.861Z,0
2023-02-16T00:10:38.074Z,0
2023-02-16T00:11:38.279Z,0
2023-02-16T00:12:37.618Z,0
2023-02-16T00:13:39.820Z,0
2023-02-16T00:14:40.048Z,0
2023-02-16T00:15:40.061Z,0
2023-02-16T00:16:41.455Z,0
2023-02-16T00:17:41.737Z,0
2023-02-16T00:18:41.981Z,0
2023-02-16T00:19:42.313Z,0
2023-02-16T00:20:41.970Z,0
2023-02-16T00:21:42.906Z,0
2023-02-16T00:22:44.522Z,0
2023-02-16T00:23:44.511Z,0
2023-02-16T00:24:45.476Z,0
2023-02-16T00:25:45.398Z,0
2023-02-16T00:26:46.597Z,0
2023-02-16T00:27:46.903Z,0
2023-02-16T00:28:47.552Z,0
2023-02-16T00:29:50.910Z,0
2023-02-16T00:30:48.632Z,0
2023-02-16T00:31:51.033Z,0
2023-02-16T00:32:50.272Z,0
2023-02-16T00:33:50.484Z,0
2023-02-16T00:34:50.698Z,0
2023-02-16T00:35:50.619Z,0
2023-02-16T00:36:51.239Z,0
2023-02-16T00:37:53.159Z,0
2023-02-16T00:38:53.345Z,0
2023-02-16T00:39:53.956Z,0
2023-02-16T00:40:53.856Z,0
2023-02-16T00:41:55.080Z,0
2023-02-16T00:42:57.527Z,0
2023-02-16T00:43:56.836Z,0
2023-02-16T00:44:56.768Z,0
2023-02-16T00:45:57.734Z,0
2023-02-16T00:46:58.950Z,0
2023-02-16T00:47:59.778Z,0
2023-02-16T00:49:02.298Z,0
2023-02-16T00:50:01.229Z,0
2023-02-16T00:51:05.329Z,0
2023-02-16T00:52:03.082Z,0
2023-02-16T00:53:03.754Z,0
2023-02-16T00:54:04.240Z,0
2023-02-16T00:55:04.158Z,0
2023-02-16T00:56:05.110Z,0
2023-02-16T00:57:04.462Z,0
2023-02-16T00:58:05.888Z,0
2023-02-16T00:59:07.084Z,0
2023-02-16T01:00:07.335Z,0
2023-02-16T01:01:07.522Z,0
2023-02-16T01:02:08.697Z,0
2023-02-16T01:03:08.902Z,0
2023-02-16T01:04:09.186Z,0
2023-02-16T01:05:09.942Z,0
2023-02-16T01:06:10.152Z,0
2023-02-16T01:07:09.809Z,0
2023-02-16T01:08:11.504Z,0
2023-02-16T01:09:11.153Z,0
2023-02-16T01:10:12.072Z,0
2023-02-16T01:11:13.215Z,0
2023-02-16T01:12:13.424Z,0
2023-02-16T01:13:13.621Z,0
2023-02-16T01:14:14.036Z,0
2023-02-16T01:15:14.997Z,0
2023-02-16T01:16:16.079Z,0
2023-02-16T01:17:15.891Z,0
2023-02-16T01:18:16.298Z,0
2023-02-16T01:19:16.939Z,0
2023-02-16T01:20:17.599Z,0
2023-02-16T01:21:18.990Z,0
2023-02-16T01:22:19.202Z,0
2023-02-16T01:23:19.789Z,0
2023-02-16T01:24:19.709Z,0
2023-02-16T01:25:20.628Z,0
2023-02-16T01:26:20.571Z,0
2023-02-16T01:27:21.488Z,0
2023-02-16T01:28:21.558Z,0
2023-02-16T01:29:22.189Z,0
2023-02-16T01:30:23.733Z,0
2023-02-16T01:31:24.737Z,0
2023-02-16T01:32:26.388Z,0
2023-02-16T01:33:25.629Z,0
2023-02-16T01:34:25.569Z,0
2023-02-16T01:35:26.213Z,0
2023-02-16T01:36:27.405Z,0
2023-02-16T01:37:28.347Z,0
2023-02-16T01:38:30.323Z,0
2023-02-16T01:39:29.528Z,0
2023-02-16T01:40:30.769Z,0
2023-02-16T01:41:31.261Z,0
2023-02-16T01:42:31.168Z,0
2023-02-16T01:43:32.374Z,0
2023-02-16T01:44:32.274Z,0
2023-02-16T01:45:32.617Z,0
2023-02-16T01:46:33.619Z,0
2023-02-16T01:47:34.241Z,0
2023-02-16T01:48:35.829Z,0
2023-02-16T01:49:36.466Z,0
2023-02-16T01:50:37.394Z,0
2023-02-16T01:51:37.737Z,0
2023-02-16T01:52:38.641Z,0
2023-02-16T01:53:40.397Z,0
2023-02-16T01:54:40.371Z,0
2023-02-16T01:55:41.285Z,0
2023-02-16T01:56:41.247Z,0
2023-02-16T01:57:41.881Z,0
2023-02-16T01:58:43.445Z,0
2023-02-16T01:59:43.076Z,0
2023-02-16T02:00:44.324Z,0
2023-02-16T02:01:45.034Z,0
2023-02-16T02:02:45.571Z,0
2023-02-16T02:03:45.820Z,0
2023-02-16T02:04:45.737Z,0
2023-02-16T02:05:46.434Z,0
2023-02-16T02:06:47.924Z,0
2023-02-16T02:07:48.128Z,0
2023-02-16T02:08:48.843Z,0
2023-02-16T02:09:49.328Z,0
2023-02-16T02:10:49.655Z,0
2023-02-16T02:11:49.868Z,0
2023-02-16T02:12:50.406Z,0
2023-02-16T02:13:50.354Z,0
2023-02-16T02:14:51.590Z,0
2023-02-16T02:15:52.056Z,0
2023-02-16T02:16:52.000Z,0
2023-02-16T02:17:53.493Z,0
2023-02-16T02:18:53.503Z,0
2023-02-16T02:19:53.431Z,0
2023-02-16T02:20:54.339Z,0
2023-02-16T02:21:55.256Z,0
2023-02-16T02:22:56.467Z,0
2023-02-16T02:23:57.071Z,0
2023-02-16T02:24:56.967Z,0
2023-02-16T02:25:58.184Z,0
2023-02-16T02:26:58.139Z,0
2023-02-16T02:27:59.336Z,0
2023-02-16T02:29:00.112Z,0
2023-02-16T02:30:00.497Z,0
2023-02-16T02:31:00.512Z,0
2023-02-16T02:32:01.201Z,0
2023-02-16T02:33:01.136Z,0
2023-02-16T02:34:02.338Z,0
2023-02-16T02:35:02.259Z,0
2023-02-16T02:36:03.747Z,0
2023-02-16T02:37:03.979Z,0
2023-02-16T02:38:04.212Z,0
2023-02-16T02:39:04.950Z,0
2023-02-16T02:40:05.177Z,0
2023-02-16T02:41:07.024Z,0
2023-02-16T02:42:06.234Z,0
2023-02-16T02:43:06.173Z,0
2023-02-16T02:44:07.372Z,0
2023-02-16T02:45:07.297Z,0
2023-02-16T02:46:08.731Z,0
2023-02-16T02:47:08.999Z,0
2023-02-16T02:48:08.650Z,0
2023-02-16T02:49:10.086Z,0
2023-02-16T02:50:10.305Z,0
2023-02-16T02:51:11.217Z,0
2023-02-16T02:52:11.432Z,0
2023-02-16T02:53:11.647Z,0
2023-02-16T02:54:12.422Z,0
2023-02-16T02:55:12.625Z,0
2023-02-16T02:56:13.552Z,0
2023-02-16T02:57:14.201Z,0
2023-02-16T02:58:15.134Z,0
2023-02-16T02:59:15.197Z,0
2023-02-16T03:00:15.835Z,0
2023-02-16T03:01:18.008Z,0
2023-02-16T03:02:16.873Z,0
2023-02-16T03:03:17.560Z,0
2023-02-16T03:04:18.015Z,0
2023-02-16T03:05:19.215Z,0
2023-02-16T03:06:19.445Z,0
2023-02-16T03:07:19.371Z,0
2023-02-16T03:08:20.608Z,0
2023-02-16T03:09:22.521Z,0
2023-02-16T03:10:22.418Z,0
2023-02-16T03:11:23.927Z,0
2023-02-16T03:12:23.845Z,0
2023-02-16T03:13:23.780Z,0
2023-02-16T03:14:24.193Z,0
2023-02-16T03:15:25.404Z,0
2023-02-16T03:16:25.687Z,0
2023-02-16T03:17:25.451Z,0
2023-02-16T03:18:26.690Z,0
2023-02-16T03:19:26.688Z,0
2023-02-16T03:20:27.904Z,0
2023-02-16T03:21:28.116Z,0
2023-02-16T03:22:27.742Z,0
2023-02-16T03:23:28.952Z,0
2023-02-16T03:24:29.569Z,0
2023-02-16T03:25:29.803Z,0
2023-02-16T03:26:29.741Z,0
2023-02-16T03:27:30.639Z,0
2023-02-16T03:28:31.872Z,0
2023-02-16T03:29:31.061Z,0
2023-02-16T03:30:32.959Z,0
2023-02-16T03:31:34.261Z,0
2023-02-16T03:32:33.603Z,0
2023-02-16T03:33:33.230Z,0
2023-02-16T03:34:34.147Z,0
2023-02-16T03:35:34.051Z,0
2023-02-16T03:36:34.983Z,0
2023-02-16T03:37:36.183Z,0
2023-02-16T03:38:36.387Z,0
2023-02-16T03:39:37.201Z,0
2023-02-16T03:40:37.405Z,0
2023-02-16T03:41:37.909Z,0
2023-02-16T03:42:37.839Z,0
2023-02-16T03:43:38.745Z,0
2023-02-16T03:44:39.676Z,0
2023-02-16T03:45:40.123Z,0
2023-02-16T03:46:39.771Z,0
2023-02-16T03:47:40.754Z,0
2023-02-16T03:48:41.264Z,0
2023-02-16T03:49:41.718Z,0
2023-02-16T03:50:41.922Z,0
2023-02-16T03:51:42.126Z,0
2023-02-16T03:52:42.751Z,0
2023-02-16T03:53:43.961Z,0
2023-02-16T03:54:44.627Z,0
2023-02-16T03:55:45.116Z,0
2023-02-16T03:56:44.774Z,0
2023-02-16T03:57:45.686Z,0
2023-02-16T03:58:46.607Z,0
2023-02-16T03:59:47.341Z,0
2023-02-16T04:00:48.554Z,0
2023-02-16T04:01:48.350Z,0
2023-02-16T04:02:49.634Z,0
2023-02-16T04:03:50.870Z,0
2023-02-16T04:04:50.337Z,0
2023-02-16T04:05:51.276Z,0
2023-02-16T04:06:51.222Z,0
2023-02-16T04:07:52.179Z,0
2023-02-16T04:08:53.091Z,0
2023-02-16T04:09:53.905Z,0
2023-02-16T04:10:54.103Z,0
2023-02-16T04:11:54.329Z,0
2023-02-16T04:12:54.587Z,0
2023-02-16T04:13:54.792Z,0
2023-02-16T04:14:55.068Z,0
2023-02-16T04:15:55.586Z,0
2023-02-16T04:16:56.210Z,0
2023-02-16T04:17:56.416Z,0
2023-02-16T04:18:56.944Z,0
2023-02-16T04:19:57.949Z,0
2023-02-16T04:20:58.440Z,0
2023-02-16T04:21:58.129Z,0
2023-02-16T04:22:59.106Z,0
2023-02-16T04:24:00.616Z,0
2023-02-16T04:25:00.975Z,0
2023-02-16T04:26:01.192Z,0
2023-02-16T04:27:01.540Z,0
2023-02-16T04:28:02.186Z,0
2023-02-16T04:29:03.100Z,0
2023-02-16T04:30:04.447Z,0
2023-02-16T04:31:06.026Z,0
2023-02-16T04:32:06.124Z,0
2023-02-16T04:33:06.419Z,0
2023-02-16T04:34:06.662Z,0
2023-02-16T04:35:06.577Z,0
2023-02-16T04:36:07.193Z,0
2023-02-16T04:37:08.210Z,0
2023-02-16T04:38:09.436Z,0
2023-02-16T04:39:09.644Z,0
2023-02-16T04:40:10.347Z,0
2023-02-16T04:41:11.340Z,0
2023-02-16T04:42:10.974Z,0
2023-02-16T04:43:12.185Z,0
2023-02-16T04:44:12.402Z,0
2023-02-16T04:45:12.624Z,0
2023-02-16T04:46:13.103Z,0
2023-02-16T04:47:13.350Z,0
2023-02-16T04:48:13.286Z,0
2023-02-16T04:49:14.542Z,0
2023-02-16T04:50:15.155Z,0
2023-02-16T04:51:16.467Z,0
2023-02-16T04:52:16.391Z,0
2023-02-16T04:53:16.315Z,0
2023-02-16T04:54:16.682Z,0
2023-02-16T04:55:18.013Z,0
2023-02-16T04:56:18.510Z,0
2023-02-16T04:57:18.441Z,0
2023-02-16T04:58:18.355Z,0
2023-02-16T04:59:19.394Z,0
2023-02-16T05:00:19.719Z,0
2023-02-16T05:01:20.735Z,0
2023-02-16T05:02:20.261Z,0
2023-02-16T05:03:20.484Z,0
2023-02-16T05:04:21.015Z,0
2023-02-16T05:05:21.249Z,0
2023-02-16T05:06:21.904Z,0
2023-02-16T05:07:23.106Z,0
2023-02-16T05:08:26.320Z,0
2023-02-16T05:09:24.539Z,0
2023-02-16T05:10:25.512Z,0
2023-02-16T05:11:25.711Z,0
2023-02-16T05:12:26.257Z,0
2023-02-16T05:13:26.805Z,0
2023-02-16T05:14:26.719Z,0
2023-02-16T05:15:27.376Z,0
2023-02-16T05:16:28.482Z,0
2023-02-16T05:17:29.130Z,0
2023-02-16T05:18:29.762Z,0
2023-02-16T05:19:30.971Z,0
2023-02-16T05:20:31.534Z,0
2023-02-16T05:21:32.473Z,0
2023-02-16T05:22:32.932Z,0
2023-02-16T05:23:33.293Z,0
2023-02-16T05:24:34.213Z,0
2023-02-16T05:25:35.532Z,0
2023-02-16T05:26:35.466Z,0
2023-02-16T05:27:37.011Z,0
2023-02-16T05:28:36.926Z,0
2023-02-16T05:29:37.155Z,0
2023-02-16T05:30:37.376Z,0
2023-02-16T05:31:38.987Z,0
2023-02-16T05:32:39.303Z,0
2023-02-16T05:33:39.957Z,0
2023-02-16T05:34:40.891Z,0
2023-02-16T05:35:42.099Z,0
2023-02-16T05:36:41.741Z,0
2023-02-16T05:37:42.963Z,0
2023-02-16T05:38:42.898Z,0
2023-02-16T05:39:42.845Z,0
2023-02-16T05:40:44.348Z,0
2023-02-16T05:41:44.565Z,0
2023-02-16T05:42:45.780Z,0
2023-02-16T05:43:46.621Z,0
2023-02-16T05:44:46.573Z,0
2023-02-16T05:45:47.772Z,0
2023-02-16T05:46:48.199Z,0
2023-02-16T05:47:50.523Z,0
2023-02-16T05:48:48.250Z,0
2023-02-16T05:49:49.210Z,0
2023-02-16T05:50:49.689Z,0
2023-02-16T05:51:50.251Z,0
2023-02-16T05:52:50.450Z,0
2023-02-16T05:53:50.643Z,0
2023-02-16T05:54:50.567Z,0
2023-02-16T05:55:52.352Z,0
2023-02-16T05:56:52.554Z,0
2023-02-16T05:57:52.525Z,0
2023-02-16T05:58:53.728Z,0
2023-02-16T05:59:54.378Z,0
2023-02-16T06:00:55.101Z,0
2023-02-16T06:01:57.532Z,0
2023-02-16T06:02:55.872Z,0
2023-02-16T06:03:57.188Z,0
2023-02-16T06:04:57.710Z,0
2023-02-16T06:05:57.382Z,0
2023-02-16T06:06:58.016Z,0
2023-02-16T06:07:58.713Z,0
2023-02-16T06:08:59.671Z,0
2023-02-16T06:10:00.637Z,0
2023-02-16T06:11:02.013Z,0
2023-02-16T06:12:01.913Z,0
2023-02-16T06:13:02.398Z,0
2023-02-16T06:14:02.352Z,0
2023-02-16T06:15:02.995Z,0
2023-02-16T06:16:04.601Z,0
2023-02-16T06:17:04.853Z,0
2023-02-16T06:18:05.590Z,0
2023-02-16T06:19:06.971Z,0
2023-02-16T06:20:07.192Z,0
2023-02-16T06:21:07.755Z,0
2023-02-16T06:22:07.688Z,0
2023-02-16T06:23:08.620Z,5.63
2023-02-16T06:24:09.277Z,5.63
2023-02-16T06:25:09.904Z,5.63
2023-02-16T06:26:11.511Z,5.63
2023-02-16T06:27:11.441Z,5.63
2023-02-16T06:28:12.076Z,5.63
2023-02-16T06:29:13.274Z,5.63
2023-02-16T06:30:14.862Z,11.25
2023-02-16T06:31:16.740Z,11.25
2023-02-16T06:32:16.785Z,11.25
2023-02-16T06:33:17.028Z,11.25
2023-02-16T06:34:17.240Z,16.88
2023-02-16T06:35:17.452Z,16.88
2023-02-16T06:36:18.393Z,16.88
2023-02-16T06:37:19.324Z,16.88
2023-02-16T06:38:19.526Z,22.5
2023-02-16T06:39:19.747Z,22.5
2023-02-16T06:40:19.381Z,22.5
2023-02-16T06:41:21.777Z,22.5
2023-02-16T06:42:21.337Z,28.13
2023-02-16T06:43:21.571Z,33.75
2023-02-16T06:44:21.807Z,33.75
2023-02-16T06:45:22.314Z,33.75
2023-02-16T06:46:22.047Z,33.75
2023-02-16T06:47:23.278Z,45
2023-02-16T06:48:23.930Z,50.63
2023-02-16T06:49:27.713Z,118.13
2023-02-16T06:50:25.780Z,90
2023-02-16T06:51:25.893Z,78.75
2023-02-16T06:52:27.104Z,106.88
2023-02-16T06:53:28.328Z,168.75
2023-02-16T06:54:28.525Z,202.5
2023-02-16T06:55:29.053Z,191.25
2023-02-16T06:56:29.961Z,146.25
2023-02-16T06:57:29.895Z,157.5
2023-02-16T06:58:30.545Z,129.38
2023-02-16T06:59:31.763Z,78.75
2023-02-16T07:00:32.576Z,56.25
2023-02-16T07:01:33.319Z,50.63
2023-02-16T07:02:33.268Z,50.63
2023-02-16T07:03:34.590Z,50.63
2023-02-16T07:04:34.615Z,56.25
2023-02-16T07:05:34.827Z,61.88
2023-02-16T07:06:34.472Z,67.5
2023-02-16T07:07:35.726Z,73.13
2023-02-16T07:08:36.057Z,95.63
2023-02-16T07:09:36.562Z,118.13
2023-02-16T07:10:52.931Z,140.63
2023-02-16T07:11:41.642Z,123.75
2023-02-16T07:12:41.875Z,129.38
2023-02-16T07:13:42.121Z,135
2023-02-16T07:14:44.065Z,112.5
2023-02-16T07:15:43.360Z,78.75
2023-02-16T07:16:43.979Z,73.13
2023-02-16T07:17:43.975Z,73.13
2023-02-16T07:18:44.915Z,78.75
2023-02-16T07:19:44.839Z,84.38
2023-02-16T07:20:45.754Z,78.75
2023-02-16T07:21:46.508Z,78.75
2023-02-16T07:22:46.430Z,78.75
2023-02-16T07:23:47.369Z,84.38
2023-02-16T07:24:49.008Z,95.63
2023-02-16T07:25:48.928Z,101.25
2023-02-16T07:26:49.992Z,101.25
2023-02-16T07:27:50.498Z,106.88
2023-02-16T07:28:50.208Z,140.63
2023-02-16T07:29:51.411Z,168.75
2023-02-16T07:30:52.823Z,163.13
2023-02-16T07:31:53.728Z,146.25
2023-02-16T07:32:52.416Z,129.38
2023-02-16T07:33:53.357Z,180
2023-02-16T07:34:54.841Z,163.13
2023-02-16T07:35:55.360Z,123.75
2023-02-16T07:36:55.589Z,106.88
2023-02-16T07:37:55.822Z,101.25
2023-02-16T07:38:57.054Z,101.25
2023-02-16T07:39:57.384Z,118.13
2023-02-16T07:40:57.453Z,140.63
2023-02-16T07:41:58.963Z,129.38
2023-02-16T07:42:59.172Z,146.25
2023-02-16T07:43:59.301Z,180
2023-02-16T07:44:59.510Z,208.13
2023-02-16T07:45:59.781Z,213.75
2023-02-16T07:46:59.688Z,247.5
2023-02-16T07:48:00.916Z,241.88
2023-02-16T07:49:00.870Z,298.13
2023-02-16T07:50:02.087Z,348.75
2023-02-16T07:51:02.701Z,410.63
2023-02-16T07:52:02.918Z,331.88
2023-02-16T07:53:04.122Z,230.63
2023-02-16T07:54:05.099Z,185.63
2023-02-16T07:55:05.845Z,163.13
2023-02-16T07:56:07.061Z,180
2023-02-16T07:57:08.491Z,151.88
2023-02-16T07:58:08.773Z,135
2023-02-16T07:59:09.262Z,135
2023-02-16T08:00:08.762Z,146.25
2023-02-16T08:01:09.967Z,140.63
2023-02-16T08:02:10.724Z,129.38
2023-02-16T08:03:12.119Z,135
2023-02-16T08:04:10.852Z,135
2023-02-16T08:05:11.825Z,129.38
2023-02-16T08:06:12.325Z,163.13
2023-02-16T08:07:12.261Z,146.25
2023-02-16T08:08:13.229Z,135
2023-02-16T08:09:14.776Z,140.63
2023-02-16T08:10:14.437Z,163.13
2023-02-16T08:11:16.217Z,168.75
2023-02-16T08:12:16.993Z,196.88
2023-02-16T08:13:17.216Z,219.38
2023-02-16T08:14:17.142Z,230.63
2023-02-16T08:15:18.665Z,191.25
2023-02-16T08:16:19.610Z,208.13
2023-02-16T08:17:20.180Z,241.88
2023-02-16T08:18:20.107Z,270
2023-02-16T08:19:21.056Z,343.13
2023-02-16T08:20:23.770Z,315
2023-02-16T08:21:23.101Z,281.25
2023-02-16T08:22:23.827Z,258.75
2023-02-16T08:23:24.493Z,196.88
2023-02-16T08:24:25.987Z,174.38
2023-02-16T08:25:26.240Z,196.88
2023-02-16T08:26:26.789Z,208.13
2023-02-16T08:27:27.526Z,225
2023-02-16T08:28:28.024Z,213.75
2023-02-16T08:29:28.531Z,219.38
2023-02-16T08:30:29.213Z,275.63
2023-02-16T08:31:29.821Z,281.25
2023-02-16T08:32:30.614Z,320.63
2023-02-16T08:33:30.840Z,303.75
2023-02-16T08:34:30.796Z,298.13
2023-02-16T08:35:31.470Z,298.13
2023-02-16T08:36:32.430Z,270
2023-02-16T08:37:33.379Z,180
2023-02-16T08:38:34.029Z,168.75
2023-02-16T08:39:35.543Z,168.75
2023-02-16T08:40:35.507Z,168.75
2023-02-16T08:41:36.816Z,180
2023-02-16T08:42:37.271Z,191.25
2023-02-16T08:43:37.470Z,185.63
2023-02-16T08:44:37.861Z,225
2023-02-16T08:45:38.513Z,208.13
2023-02-16T08:46:38.734Z,185.63
2023-02-16T08:47:40.038Z,202.5
2023-02-16T08:48:40.007Z,202.5
2023-02-16T08:49:40.618Z,196.88
2023-02-16T08:50:40.944Z,202.5
2023-02-16T08:51:42.165Z,219.38
2023-02-16T08:52:42.121Z,225
2023-02-16T08:53:43.369Z,247.5
2023-02-16T08:54:43.654Z,236.25
2023-02-16T08:55:44.159Z,225
2023-02-16T08:56:44.670Z,213.75
2023-02-16T08:57:45.107Z,208.13
2023-02-16T08:58:45.360Z,202.5
2023-02-16T08:59:46.232Z,202.5
2023-02-16T09:00:46.231Z,208.13
2023-02-16T09:01:47.386Z,196.88
2023-02-16T09:02:48.565Z,219.38
2023-02-16T09:03:48.794Z,258.75
2023-02-16T09:04:49.029Z,309.38
2023-02-16T09:05:49.707Z,315
2023-02-16T09:06:50.430Z,275.63
2023-02-16T09:07:50.866Z,219.38
2023-02-16T09:08:52.127Z,208.13
2023-02-16T09:09:54.313Z,191.25
2023-02-16T09:10:53.245Z,191.25
2023-02-16T09:11:54.214Z,225
2023-02-16T09:12:55.015Z,202.5
2023-02-16T09:13:55.550Z,202.5
2023-02-16T09:14:55.208Z,213.75
2023-02-16T09:15:56.159Z,225
2023-02-16T09:16:57.684Z,225
2023-02-16T09:17:57.724Z,219.38
2023-02-16T09:18:58.715Z,247.5
2023-02-16T09:19:59.642Z,388.13
2023-02-16T09:21:03.499Z,478.13
2023-02-16T09:22:00.729Z,517.5
2023-02-16T09:23:02.195Z,506.25
2023-02-16T09:24:02.692Z,450
2023-02-16T09:25:02.929Z,455.63
2023-02-16T09:26:04.504Z,562.5
2023-02-16T09:27:04.287Z,658.13
2023-02-16T09:28:06.046Z,601.88
2023-02-16T09:29:09.866Z,630
2023-02-16T09:30:06.921Z,714.38
2023-02-16T09:31:08.338Z,725.63
2023-02-16T09:32:08.848Z,725.63
2023-02-16T09:33:09.342Z,725.63
2023-02-16T09:34:09.859Z,725.63
2023-02-16T09:35:10.368Z,765
2023-02-16T09:36:11.364Z,798.75
2023-02-16T09:37:11.061Z,810
2023-02-16T09:38:12.007Z,821.25
2023-02-16T09:39:13.237Z,832.5
2023-02-16T09:40:13.759Z,832.5
2023-02-16T09:41:17.020Z,804.38
2023-02-16T09:42:14.553Z,832.5
2023-02-16T09:43:15.352Z,742.5
2023-02-16T09:44:15.888Z,613.13
2023-02-16T09:45:16.491Z,495
2023-02-16T09:46:17.486Z,382.5
2023-02-16T09:47:18.023Z,461.25
2023-02-16T09:48:17.953Z,607.5
2023-02-16T09:49:19.159Z,585
2023-02-16T09:50:27.599Z,545.63
2023-02-16T09:51:26.397Z,528.75
2023-02-16T09:52:20.896Z,410.63
2023-02-16T09:53:21.619Z,405
2023-02-16T09:54:21.273Z,489.38
2023-02-16T09:55:22.778Z,455.63
2023-02-16T09:56:23.555Z,478.13
2023-02-16T09:57:23.514Z,517.5
2023-02-16T09:58:24.150Z,489.38
2023-02-16T09:59:25.837Z,607.5
2023-02-16T10:00:24.502Z,770.63
2023-02-16T10:01:26.235Z,894.38
2023-02-16T10:02:26.745Z,984.38
2023-02-16T10:03:27.837Z,855
2023-02-16T10:04:28.354Z,871.88
2023-02-16T10:05:28.596Z,1029.38
2023-02-16T10:06:28.852Z,1057.5
2023-02-16T10:07:29.070Z,1215
2023-02-16T10:08:29.321Z,1113.75
2023-02-16T10:09:29.836Z,1091.25
2023-02-16T10:10:30.412Z,973.13
2023-02-16T10:11:30.645Z,781.88
2023-02-16T10:12:30.632Z,697.5
2023-02-16T10:13:32.192Z,601.88
2023-02-16T10:14:31.842Z,585
2023-02-16T10:15:33.530Z,618.75
2023-02-16T10:16:33.522Z,573.75
2023-02-16T10:17:34.182Z,652.5
2023-02-16T10:18:35.430Z,680.63
2023-02-16T10:19:35.651Z,635.63
2023-02-16T10:20:36.006Z,590.63
2023-02-16T10:21:36.502Z,618.75
2023-02-16T10:22:36.715Z,635.63
2023-02-16T10:23:37.764Z,523.13
2023-02-16T10:24:37.996Z,630
2023-02-16T10:25:38.662Z,630
2023-02-16T10:26:39.345Z,607.5
2023-02-16T10:27:40.568Z,596.25
2023-02-16T10:28:41.307Z,669.38
2023-02-16T10:29:41.560Z,736.88
2023-02-16T10:30:41.933Z,883.13
2023-02-16T10:31:42.022Z,894.38
2023-02-16T10:32:49.671Z,1085.63
2023-02-16T10:33:43.849Z,1231.88
2023-02-16T10:34:45.132Z,1361.25
2023-02-16T10:35:45.117Z,1434.38
2023-02-16T10:36:46.120Z,1333.13
2023-02-16T10:37:46.335Z,1417.5
2023-02-16T10:38:47.591Z,1575
2023-02-16T10:39:47.511Z,1530
2023-02-16T10:40:48.477Z,1468.13
2023-02-16T10:41:49.182Z,1496.25
2023-02-16T10:42:50.422Z,1546.88
2023-02-16T10:43:51.994Z,1501.88
2023-02-16T10:44:52.520Z,1462.5
2023-02-16T10:45:57.314Z,1445.63
2023-02-16T10:46:53.878Z,1231.88
2023-02-16T10:47:53.918Z,1046.25
2023-02-16T10:48:55.446Z,1063.13
2023-02-16T10:49:55.712Z,1091.25
2023-02-16T10:50:55.460Z,1141.88
2023-02-16T10:51:56.504Z,1085.63
2023-02-16T10:52:57.748Z,1175.63
2023-02-16T10:53:58.181Z,1108.13
2023-02-16T10:54:58.440Z,1102.5
2023-02-16T10:55:59.711Z,967.5
2023-02-16T10:57:00.235Z,933.75
2023-02-16T10:58:00.466Z,810
2023-02-16T10:59:01.831Z,888.75
2023-02-16T11:00:01.803Z,618.75
2023-02-16T11:01:02.979Z,551.25
2023-02-16T11:02:03.936Z,410.63
2023-02-16T11:03:03.964Z,326.25
2023-02-16T11:04:04.783Z,500.63
2023-02-16T11:05:06.461Z,489.38
2023-02-16T11:06:07.020Z,348.75
2023-02-16T11:07:06.836Z,1243.13
2023-02-16T11:08:08.141Z,1400.63
2023-02-16T11:09:08.664Z,1243.13
2023-02-16T11:10:08.641Z,945
2023-02-16T11:11:10.018Z,573.75
2023-02-16T11:12:09.679Z,461.25
2023-02-16T11:13:10.905Z,337.5
2023-02-16T11:14:14.596Z,264.38
2023-02-16T11:15:11.813Z,405
2023-02-16T11:16:12.091Z,770.63
2023-02-16T11:17:11.773Z,1006.88
2023-02-16T11:18:13.300Z,1029.38
2023-02-16T11:19:13.528Z,703.13
2023-02-16T11:20:17.073Z,545.63
2023-02-16T11:21:15.849Z,607.5
2023-02-16T11:22:15.794Z,995.63
2023-02-16T11:23:16.016Z,832.5
2023-02-16T11:24:16.505Z,922.5
2023-02-16T11:25:20.106Z,1001.25
2023-02-16T11:26:18.096Z,1029.38
2023-02-16T11:27:19.327Z,1096.88
2023-02-16T11:28:19.539Z,922.5
2023-02-16T11:29:20.252Z,990
2023-02-16T11:30:20.856Z,1018.13
2023-02-16T11:31:22.385Z,585
2023-02-16T11:32:22.106Z,483.75
2023-02-16T11:33:22.452Z,793.13
2023-02-16T11:34:22.551Z,1198.13
2023-02-16T11:35:23.209Z,888.75
2023-02-16T11:36:24.175Z,500.63
2023-02-16T11:37:24.711Z,326.25
2023-02-16T11:38:24.644Z,371.25
2023-02-16T11:39:27.528Z,916.88
2023-02-16T11:40:26.770Z,995.63
2023-02-16T11:41:27.697Z,1158.75
2023-02-16T11:42:27.446Z,1203.75
2023-02-16T11:43:28.395Z,1080
2023-02-16T11:44:30.710Z,843.75
2023-02-16T11:45:31.398Z,399.38
2023-02-16T11:46:29.854Z,663.75
2023-02-16T11:47:30.790Z,1035
2023-02-16T11:48:31.734Z,630
2023-02-16T11:49:32.248Z,315
2023-02-16T11:50:32.783Z,225
2023-02-16T11:51:32.722Z,382.5
2023-02-16T11:52:32.982Z,894.38
2023-02-16T11:53:33.289Z,1001.25
2023-02-16T11:54:33.938Z,1040.63
2023-02-16T11:55:33.921Z,765
2023-02-16T11:56:34.349Z,624.38
2023-02-16T11:57:35.569Z,911.25
2023-02-16T11:58:35.942Z,534.38
2023-02-16T11:59:36.601Z,776.25
2023-02-16T12:00:36.275Z,1001.25
2023-02-16T12:01:37.495Z,1035
2023-02-16T12:02:37.737Z,1141.88
2023-02-16T12:03:39.550Z,1080
2023-02-16T12:04:38.509Z,1119.38
2023-02-16T12:05:40.411Z,1130.63
2023-02-16T12:06:40.920Z,1091.25
2023-02-16T12:07:41.161Z,1001.25
2023-02-16T12:08:41.804Z,984.38
2023-02-16T12:09:43.017Z,883.13
2023-02-16T12:10:43.252Z,900
2023-02-16T12:11:43.467Z,810
2023-02-16T12:12:43.716Z,663.75
2023-02-16T12:13:43.953Z,388.13
2023-02-16T12:14:47.823Z,506.25
2023-02-16T12:15:44.764Z,725.63
2023-02-16T12:16:46.353Z,810
2023-02-16T12:17:47.110Z,765
2023-02-16T12:18:47.656Z,675
2023-02-16T12:19:47.614Z,630
2023-02-16T12:20:49.112Z,478.13
2023-02-16T12:21:49.077Z,410.63
2023-02-16T12:22:50.030Z,495
2023-02-16T12:23:50.564Z,556.88
2023-02-16T12:24:50.881Z,618.75
2023-02-16T12:25:51.119Z,686.25
2023-02-16T12:26:51.332Z,652.5
2023-02-16T12:27:51.887Z,444.38
2023-02-16T12:28:52.136Z,371.25
2023-02-16T12:29:53.643Z,489.38
2023-02-16T12:30:54.077Z,511.88
2023-02-16T12:31:54.507Z,455.63
2023-02-16T12:32:54.469Z,562.5
2023-02-16T12:33:54.853Z,607.5
2023-02-16T12:34:57.686Z,421.88
2023-02-16T12:35:55.053Z,371.25
2023-02-16T12:36:56.285Z,320.63
2023-02-16T12:37:56.237Z,399.38
2023-02-16T12:38:57.173Z,461.25
2023-02-16T12:39:58.160Z,461.25
2023-02-16T12:40:58.598Z,478.13
2023-02-16T12:41:58.573Z,455.63
2023-02-16T12:42:59.248Z,455.63
2023-02-16T12:44:00.815Z,438.75
2023-02-16T12:45:01.045Z,427.5
2023-02-16T12:46:01.526Z,343.13
2023-02-16T12:47:01.775Z,382.5
2023-02-16T12:48:02.299Z,573.75
2023-02-16T12:49:02.962Z,652.5
2023-02-16T12:50:03.211Z,545.63
2023-02-16T12:51:04.011Z,596.25
2023-02-16T12:52:04.824Z,618.75
2023-02-16T12:53:05.047Z,596.25
2023-02-16T12:54:04.996Z,568.13
2023-02-16T12:55:06.146Z,590.63
2023-02-16T12:56:06.426Z,618.75
2023-02-16T12:57:06.311Z,551.25
2023-02-16T12:58:07.852Z,495
2023-02-16T12:59:07.494Z,444.38
2023-02-16T13:00:09.121Z,427.5
2023-02-16T13:01:10.230Z,427.5
2023-02-16T13:02:10.031Z,461.25
2023-02-16T13:03:10.892Z,450
2023-02-16T13:04:11.817Z,438.75
2023-02-16T13:05:12.308Z,450
2023-02-16T13:06:13.455Z,433.13
2023-02-16T13:07:13.418Z,405
2023-02-16T13:08:14.065Z,365.63
2023-02-16T13:09:15.575Z,309.38
2023-02-16T13:10:15.941Z,337.5
2023-02-16T13:11:17.159Z,388.13
2023-02-16T13:12:18.985Z,365.63
2023-02-16T13:13:17.218Z,348.75
2023-02-16T13:14:17.222Z,382.5
2023-02-16T13:15:17.961Z,416.25
2023-02-16T13:16:40.179Z,416.25
2023-02-16T13:17:18.425Z,393.75
2023-02-16T13:18:18.678Z,382.5
2023-02-16T13:19:19.931Z,399.38
2023-02-16T13:20:21.640Z,382.5
2023-02-16T13:21:20.908Z,360
2023-02-16T13:22:20.870Z,337.5
2023-02-16T13:23:20.829Z,309.38
2023-02-16T13:24:22.062Z,298.13
2023-02-16T13:25:22.780Z,320.63
2023-02-16T13:26:23.748Z,337.5
2023-02-16T13:27:23.273Z,331.88
2023-02-16T13:28:23.781Z,331.88
2023-02-16T13:29:24.465Z,331.88
2023-02-16T13:30:25.343Z,331.88
2023-02-16T13:31:25.885Z,320.63
2023-02-16T13:32:28.358Z,315
2023-02-16T13:33:26.610Z,309.38
2023-02-16T13:34:27.549Z,309.38
2023-02-16T13:35:28.228Z,292.5
2023-02-16T13:36:28.469Z,281.25
2023-02-16T13:37:28.740Z,303.75
2023-02-16T13:38:28.436Z,303.75
2023-02-16T13:39:29.412Z,292.5
2023-02-16T13:40:29.973Z,298.13
2023-02-16T13:41:30.184Z,298.13
2023-02-16T13:42:30.410Z,303.75
2023-02-16T13:43:31.418Z,298.13